Aérodrome :
LOGIN :

S'inscrire | Disclaimer

   EN    FR    IT 

 










Légende :    VFR   VFR Marginal   IFR   IFR Intensif   IFR Très Intensif
Visi : 
Plafond : 
>= 8 km
>= 3000ft
5 à 8 km
1000 à 3000 ft
1500m à 5 km
500 à 1000 ft
800 à 1500m
200 à 500 ft
< 800m
< 200 ft
Symboles :   Orages  Brouillard  Fortes neiges  Fortes précipitations  Vent > 20 kt
SIGMETs :   Divers  Orages  Givrage  Turbulence  Onde Orograph.  Cendres Volcan.






- Altitude de l'aérodrome : 249 ft


EGOS - RAF Shawbury

DERNIER METAR :
  • 111250Z 09004KT 9999 FEW030 BKN250 27/18 Q1015 NOSIG RMK BLU BLU

METARs EXPIRÉS :
  • 111220Z 11004KT CAVOK 25/18 Q1015 NOSIG RMK BLU BLU
  • 111150Z 07004KT CAVOK 25/18 Q1015 NOSIG RMK BLU BLU
  • 111050Z 11004KT 8000 HZ FEW020 BKN250 23/18 Q1016 NOSIG RMK BLU BLU
  • 111020Z 14004KT 8000 HZ SCT015 SCT250 22/18 Q1016 TEMPO FEW018 RMK WHT TEMPO BLU

TAF TAF EGOS
Valide du 11 à 12h jusqu'au 11 à 19h UTC


111037Z 1112/1119 12005KT 9999 FEW020
PROB30
TEMPO 1115/1119 3000 +TSRA BKN045CB



MET'MAP, la Météo Aéronautique d'un coup d'oeil ! - Copyright ORBIFLY Décembre 2007 - Disclaimer

ORBIFLY MET'MAP TEAM :

Programmation & Développement : Alexandra Zaïnal
Sur une idée originale de : Baudouin d'Aumeries
Assistance à la programmation : Marc-Olivier Méhu
Soutien technique & logistique : Manuel Goepfert

Contact : metmap@orbifly.com




SOURCES & CREDITS :

   NOAA